createdAt,value
2022-10-19T01:20:35.544Z,6.80
2022-10-19T01:49:18.861Z,6.50
2022-10-19T04:40:31.006Z,5.60
2022-10-19T07:16:20.673Z,6.20
2022-10-19T08:30:38.625Z,23.70
2022-10-19T08:35:35.507Z,24.10
2022-10-19T08:40:30.930Z,25.00
2022-10-19T08:43:10.170Z,25.40
2022-10-19T08:48:33.075Z,25.80
2022-10-19T08:51:01.328Z,25.70
2022-10-19T08:53:43.507Z,25.80
2022-10-19T08:56:55.577Z,25.60
2022-10-19T09:01:55.926Z,24.40
2022-10-19T09:04:58.291Z,23.30
2022-10-19T09:07:33.536Z,22.00
2022-10-19T09:10:15.587Z,21.00
2022-10-19T09:12:47.835Z,19.70
2022-10-19T09:15:49.387Z,19.10
2022-10-19T09:18:23.146Z,18.60
2022-10-19T09:20:53.951Z,18.90
2022-10-19T09:38:29.453Z,21.50
2022-10-19T09:40:58.375Z,22.20
2022-10-19T09:43:27.154Z,22.10
2022-10-19T09:46:20.043Z,23.50
2022-10-19T09:53:55.507Z,25.00
2022-10-19T09:56:27.523Z,25.40
2022-10-19T09:58:59.677Z,24.50
2022-10-19T10:01:43.162Z,24.50
2022-10-19T10:04:19.123Z,26.00
2022-10-19T10:06:48.338Z,26.40
2022-10-19T10:09:23.228Z,26.60
2022-10-19T10:11:51.724Z,27.70
2022-10-19T10:14:32.377Z,26.90
2022-10-19T10:17:05.048Z,27.90
2022-10-19T10:19:33.918Z,27.00
2022-10-19T10:24:33.381Z,26.50
2022-10-19T10:27:03.588Z,26.30
2022-10-19T10:29:33.225Z,26.10
2022-10-19T10:32:19.370Z,25.80
2022-10-19T10:35:02.772Z,27.10
2022-10-19T10:37:30.884Z,26.40
2022-10-19T10:40:03.561Z,27.10
2022-10-19T10:42:37.056Z,27.50
2022-10-19T10:45:05.438Z,28.70
2022-10-19T10:50:05.774Z,29.60
2022-10-19T10:55:17.042Z,29.70
2022-10-19T10:57:51.684Z,28.90
2022-10-19T11:00:26.692Z,29.20
2022-10-19T11:03:05.109Z,28.60
2022-10-19T11:05:36.316Z,28.80
2022-10-19T11:08:25.270Z,28.30
2022-10-19T11:10:59.876Z,29.50
2022-10-19T11:13:50.468Z,30.60
2022-10-19T11:16:19.944Z,31.20
2022-10-19T11:19:02.002Z,33.00
2022-10-19T11:21:39.977Z,30.30
2022-10-19T11:24:25.721Z,30.60
2022-10-19T11:27:10.590Z,30.90
2022-10-19T11:29:46.227Z,31.40
2022-10-19T11:32:19.030Z,31.50
2022-10-19T11:35:11.446Z,28.50
2022-10-19T11:38:19.840Z,29.00
2022-10-19T11:41:18.139Z,27.80
2022-10-19T11:44:11.402Z,26.70
2022-10-19T11:47:01.284Z,25.90
2022-10-19T11:49:48.210Z,25.50
2022-10-19T11:52:31.414Z,24.30
2022-10-19T11:57:32.267Z,22.90
2022-10-19T12:00:15.300Z,22.50
2022-10-19T12:02:59.336Z,22.10
2022-10-19T12:05:50.448Z,19.50
2022-10-19T12:08:32.214Z,21.10
2022-10-19T12:11:10.407Z,20.40
2022-10-19T12:13:44.267Z,20.10
2022-10-19T12:16:14.118Z,20.20
2022-10-19T12:18:58.371Z,21.60
2022-10-19T12:21:33.225Z,20.00
2022-10-19T12:24:03.775Z,19.90
2022-10-19T12:26:34.680Z,19.80
2022-10-19T12:29:07.077Z,19.70
2022-10-19T12:36:57.171Z,19.50
2022-10-19T12:39:39.410Z,19.00
2022-10-19T12:42:15.954Z,19.50
2022-10-19T12:45:03.800Z,17.10
2022-10-19T12:47:30.529Z,19.70
2022-10-19T12:52:48.188Z,16.90
2022-10-19T12:55:17.740Z,18.40
2022-10-19T12:57:48.374Z,17.90
2022-10-19T13:00:28.155Z,16.50
2022-10-19T13:03:15.549Z,17.80
2022-10-19T13:34:24.997Z,17.10
2022-10-19T14:03:43.865Z,16.60
2022-10-19T14:11:32.248Z,16.70
2022-10-19T14:37:31.112Z,16.50
2022-10-19T14:57:42.954Z,16.20
2022-10-19T15:05:26.311Z,16.10
2022-10-19T21:34:59.247Z,8.90
